KIM weather

Kimberley Airport
Kimberley, Northern Cape, South Africa

Public forecast

Using degrees Celsius for public forecast. Weather courtesy of forecast.io.

Current aviation weather report (METAR) for Kimberley Airport

Retrieved 2019/10/24 01:00 UTC (59 minutes ago):

FAKM 240100Z AUTO 29001KT //// // ////// 11/M10 Q1014

Aviation forecast (TAF) for Kimberley Airport

Forecast is more than 12 hours old.

Retrieved 2018/10/29 07:06 UTC (12 months ago):

TAF TAF FAKM 290600Z 2907/2919 33015KT CAVOK TX38/2913Z TN28/2918Z